createdAt,value
2023-02-17T00:00:54.767Z,23.73
2023-02-17T00:03:21.410Z,23.75
2023-02-17T00:05:50.685Z,20.48
2023-02-17T00:08:17.692Z,21.30
2023-02-17T00:10:44.486Z,26.10
2023-02-17T00:13:11.118Z,23.42
2023-02-17T00:15:40.560Z,20.80
2023-02-17T00:18:07.139Z,22.02
2023-02-17T00:20:33.893Z,19.67
2023-02-17T00:23:00.530Z,25.10
2023-02-17T00:25:27.233Z,18.92
2023-02-17T00:27:53.971Z,22.05
2023-02-17T00:30:20.856Z,21.73
2023-02-17T00:32:47.478Z,22.70
2023-02-17T00:35:14.057Z,23.13
2023-02-17T00:37:40.754Z,22.05
2023-02-17T00:40:07.913Z,26.90
2023-02-17T00:42:34.511Z,26.15
2023-02-17T00:45:01.161Z,20.70
2023-02-17T00:47:27.801Z,22.73
2023-02-17T00:49:54.365Z,23.65
2023-02-17T00:52:20.909Z,20.88
2023-02-17T00:54:47.437Z,33.22
2023-02-17T00:57:14.116Z,19.45
2023-02-17T00:59:40.781Z,20.83
2023-02-17T01:02:07.852Z,20.58
2023-02-17T01:04:34.486Z,21.38
2023-02-17T01:07:01.865Z,21.23
2023-02-17T01:09:28.453Z,23.98
2023-02-17T01:11:55.059Z,30.23
2023-02-17T01:14:21.792Z,20.17
2023-02-17T01:16:49.477Z,25.08
2023-02-17T01:19:19.185Z,28.10
2023-02-17T01:21:46.346Z,21.73
2023-02-17T01:24:13.228Z,21.23
2023-02-17T01:26:40.875Z,23.75
2023-02-17T01:29:08.263Z,24.65
2023-02-17T01:31:35.237Z,29.33
2023-02-17T01:34:04.654Z,23.67
2023-02-17T01:36:32.402Z,27.52
2023-02-17T01:38:59.243Z,27.90
2023-02-17T01:41:27.332Z,27.30
2023-02-17T01:44:14.724Z,25.40
2023-02-17T01:46:44.218Z,21.75
2023-02-17T01:49:34.482Z,23.40
2023-02-17T01:52:04.464Z,23.33
2023-02-17T01:54:39.669Z,20.95
2023-02-17T01:57:06.438Z,23.02
2023-02-17T01:59:33.583Z,21.58
2023-02-17T02:02:04.984Z,22.45
2023-02-17T02:04:35.112Z,16.42
2023-02-17T02:07:03.779Z,20.10
2023-02-17T02:09:36.604Z,25.23
2023-02-17T02:12:15.054Z,22.08
2023-02-17T02:14:41.615Z,22.90
2023-02-17T02:17:26.521Z,24.35
2023-02-17T02:19:53.032Z,24.45
2023-02-17T02:22:48.564Z,26.50
2023-02-17T02:25:36.219Z,27.55
2023-02-17T02:28:20.868Z,25.65
2023-02-17T02:30:56.574Z,27.25
2023-02-17T02:33:33.057Z,27.33
2023-02-17T02:36:23.853Z,27.27
2023-02-17T02:39:09.230Z,23.10
2023-02-17T02:41:42.836Z,25.48
2023-02-17T02:44:13.040Z,26.88
2023-02-17T02:46:39.684Z,23.50
2023-02-17T02:49:07.469Z,26.88
2023-02-17T02:51:55.857Z,20.45
2023-02-17T02:54:46.032Z,23.45
2023-02-17T02:57:15.235Z,18.70
2023-02-17T02:59:49.738Z,20.67
2023-02-17T03:02:22.305Z,23.17
2023-02-17T03:04:51.812Z,23.15
2023-02-17T03:07:25.036Z,20.80
2023-02-17T03:09:54.227Z,21.60
2023-02-17T03:12:22.359Z,24.25
2023-02-17T03:14:51.140Z,20.83
2023-02-17T03:17:17.723Z,18.00
2023-02-17T03:19:47.807Z,16.15
2023-02-17T03:22:22.437Z,20.15
2023-02-17T03:24:49.088Z,21.25
2023-02-17T03:27:15.673Z,20.20
2023-02-17T03:29:43.009Z,21.48
2023-02-17T03:32:09.730Z,17.30
2023-02-17T03:34:36.730Z,21.67
2023-02-17T03:37:03.852Z,21.77
2023-02-17T03:39:31.608Z,19.63
2023-02-17T03:41:58.209Z,20.02
2023-02-17T03:44:24.817Z,17.60
2023-02-17T03:46:51.382Z,23.10
2023-02-17T03:49:17.989Z,18.83
2023-02-17T03:51:44.713Z,20.75
2023-02-17T03:54:11.274Z,25.70
2023-02-17T03:56:37.797Z,20.15
2023-02-17T03:59:04.873Z,22.27
2023-02-17T04:01:31.550Z,30.15
2023-02-17T04:03:58.291Z,22.80
2023-02-17T04:06:25.121Z,23.88
2023-02-17T04:08:51.715Z,21.65
2023-02-17T04:11:18.317Z,26.58
2023-02-17T04:13:44.924Z,23.45
2023-02-17T04:16:12.127Z,30.13
2023-02-17T04:18:39.110Z,18.70
2023-02-17T04:21:06.408Z,18.95
2023-02-17T04:23:35.994Z,25.65
2023-02-17T04:26:04.532Z,25.60
2023-02-17T04:28:31.309Z,22.23
2023-02-17T04:30:59.656Z,20.10
2023-02-17T04:33:27.050Z,18.10
2023-02-17T04:35:59.528Z,21.90
2023-02-17T04:38:30.444Z,23.02
2023-02-17T04:40:58.112Z,23.92
2023-02-17T04:43:26.481Z,19.05
2023-02-17T04:45:54.228Z,19.95
2023-02-17T04:48:20.824Z,23.98
2023-02-17T04:50:47.454Z,22.02
2023-02-17T04:53:14.514Z,19.70
2023-02-17T04:55:41.930Z,20.77
2023-02-17T04:58:09.448Z,19.42
2023-02-17T05:00:36.801Z,20.98
2023-02-17T05:03:03.471Z,18.70
2023-02-17T05:05:30.132Z,20.90
2023-02-17T05:07:56.665Z,20.90
2023-02-17T05:10:24.134Z,18.48
2023-02-17T05:12:50.927Z,16.35
2023-02-17T05:15:17.462Z,21.17
2023-02-17T05:17:44.316Z,22.38
2023-02-17T05:20:11.354Z,17.58
2023-02-17T05:22:38.005Z,18.73
2023-02-17T05:25:05.284Z,23.60
2023-02-17T05:27:32.902Z,21.48
2023-02-17T05:29:59.630Z,18.98
2023-02-17T05:32:26.181Z,19.08
2023-02-17T05:34:52.744Z,21.27
2023-02-17T05:37:19.354Z,19.85
2023-02-17T05:39:46.626Z,21.80
2023-02-17T05:42:13.309Z,19.80
2023-02-17T05:44:39.869Z,17.58
2023-02-17T05:47:06.557Z,22.13
2023-02-17T05:49:33.072Z,25.38
2023-02-17T05:51:59.616Z,25.42
2023-02-17T05:54:26.199Z,22.88
2023-02-17T05:56:52.729Z,20.25
2023-02-17T05:59:19.893Z,20.15
2023-02-17T06:01:46.755Z,19.55
2023-02-17T06:04:13.296Z,21.50
2023-02-17T06:06:39.865Z,19.35
2023-02-17T06:09:06.412Z,20.85
2023-02-17T06:11:33.761Z,18.77
2023-02-17T06:14:00.590Z,16.52
2023-02-17T06:16:27.244Z,17.67
2023-02-17T06:18:53.781Z,19.75
2023-02-17T06:21:20.327Z,15.40
2023-02-17T06:23:47.927Z,16.92
2023-02-17T06:26:14.738Z,21.90
2023-02-17T06:28:42.544Z,18.20
2023-02-17T06:31:09.163Z,17.23
2023-02-17T06:33:36.250Z,19.30
2023-02-17T06:36:03.246Z,23.58
2023-02-17T06:38:30.006Z,23.67
2023-02-17T06:40:56.555Z,18.58
2023-02-17T06:43:23.127Z,20.63
2023-02-17T06:45:50.262Z,19.33
2023-02-17T06:48:16.864Z,21.30
2023-02-17T06:50:43.509Z,16.50
2023-02-17T06:53:10.034Z,25.85
2023-02-17T06:55:39.082Z,17.88
2023-02-17T06:58:05.929Z,15.30
2023-02-17T07:00:32.487Z,24.55
2023-02-17T07:02:59.223Z,24.05
2023-02-17T07:05:26.001Z,16.05
2023-02-17T07:07:53.647Z,21.52
2023-02-17T07:10:21.224Z,21.08
2023-02-17T07:12:47.800Z,17.60
2023-02-17T07:15:15.046Z,20.05
2023-02-17T07:17:41.774Z,32.83
2023-02-17T07:20:09.420Z,26.98
2023-02-17T07:22:35.989Z,21.00
2023-02-17T07:25:02.524Z,24.33
2023-02-17T07:27:29.082Z,20.60
2023-02-17T07:29:55.832Z,29.35
2023-02-17T07:32:22.478Z,23.67
2023-02-17T07:34:49.059Z,20.80
2023-02-17T07:37:15.662Z,28.65
2023-02-17T07:39:42.211Z,25.33
2023-02-17T07:42:09.879Z,24.65
2023-02-17T07:44:36.384Z,22.02
2023-02-17T07:47:02.919Z,26.90
2023-02-17T07:49:29.520Z,28.27
2023-02-17T07:51:56.073Z,25.70
2023-02-17T07:54:22.798Z,21.65
2023-02-17T07:56:49.386Z,24.20
2023-02-17T07:59:16.126Z,24.80
2023-02-17T08:01:42.754Z,22.90
2023-02-17T08:04:09.483Z,25.30
2023-02-17T08:06:39.430Z,32.28
2023-02-17T08:09:24.677Z,28.50
2023-02-17T08:12:09.656Z,25.15
2023-02-17T08:14:37.287Z,26.48
2023-02-17T08:17:03.915Z,20.90
2023-02-17T08:19:46.501Z,23.65
2023-02-17T08:22:15.570Z,27.35
2023-02-17T08:24:42.151Z,20.90
2023-02-17T08:27:08.971Z,26.70
2023-02-17T08:29:35.611Z,27.40
2023-02-17T08:32:02.469Z,24.60
2023-02-17T08:34:33.653Z,23.50
2023-02-17T08:37:05.801Z,24.17
2023-02-17T08:39:33.723Z,28.10
2023-02-17T08:42:00.713Z,27.85
2023-02-17T08:44:27.265Z,26.55
2023-02-17T08:46:54.456Z,32.03
2023-02-17T08:49:24.243Z,33.53
2023-02-17T08:51:52.238Z,35.53
2023-02-17T08:54:19.052Z,39.45
2023-02-17T08:56:46.079Z,39.17
2023-02-17T08:59:13.137Z,41.45
2023-02-17T09:01:40.463Z,48.78
2023-02-17T09:04:09.127Z,34.10
2023-02-17T09:06:50.977Z,32.63
2023-02-17T09:09:20.773Z,29.15
2023-02-17T09:11:47.341Z,26.70
2023-02-17T09:14:14.340Z,28.48
2023-02-17T09:16:41.714Z,27.23
2023-02-17T09:19:08.652Z,31.88
2023-02-17T09:21:35.327Z,27.08
2023-02-17T09:24:01.973Z,30.98
2023-02-17T09:26:28.586Z,29.58
2023-02-17T09:28:55.269Z,31.73
2023-02-17T09:31:25.031Z,31.65
2023-02-17T09:33:51.717Z,25.88
2023-02-17T09:36:24.353Z,27.85
2023-02-17T09:38:51.806Z,33.30
2023-02-17T09:41:34.657Z,29.88
2023-02-17T09:44:02.163Z,30.00
2023-02-17T09:46:37.424Z,29.17
2023-02-17T09:49:11.442Z,34.53
2023-02-17T09:51:48.286Z,36.47
2023-02-17T09:54:22.577Z,24.38
2023-02-17T09:56:51.742Z,29.75
2023-02-17T09:59:32.563Z,29.83
2023-02-17T10:02:01.351Z,26.00
2023-02-17T10:04:35.956Z,25.38
2023-02-17T10:09:40.789Z,24.25
2023-02-17T10:12:14.030Z,27.48
2023-02-17T10:14:45.305Z,22.83
2023-02-17T10:17:30.087Z,28.52
2023-02-17T10:20:34.022Z,27.63
2023-02-17T10:23:10.817Z,33.90
2023-02-17T10:25:52.726Z,25.63
2023-02-17T10:28:36.508Z,30.48
2023-02-17T10:31:05.932Z,28.77
2023-02-17T10:33:36.558Z,28.92
2023-02-17T10:36:11.031Z,25.30
2023-02-17T10:38:52.994Z,29.38
2023-02-17T10:41:36.286Z,28.95
2023-02-17T10:44:08.854Z,33.25
2023-02-17T10:46:35.476Z,25.90
2023-02-17T10:49:02.267Z,30.00
2023-02-17T10:51:31.202Z,26.33
2023-02-17T10:54:03.850Z,27.45
2023-02-17T10:56:41.762Z,25.58
2023-02-17T10:59:32.730Z,28.20
2023-02-17T11:02:17.391Z,22.60
2023-02-17T11:04:46.708Z,24.42
2023-02-17T11:07:16.905Z,24.73
2023-02-17T11:09:49.724Z,20.83
2023-02-17T11:12:29.152Z,32.42
2023-02-17T11:14:56.506Z,25.02
2023-02-17T11:17:38.886Z,27.85
2023-02-17T11:20:13.603Z,33.47
2023-02-17T11:22:45.111Z,33.03
2023-02-17T11:25:27.372Z,22.80
2023-02-17T11:27:57.326Z,20.23
2023-02-17T11:30:25.000Z,31.73
2023-02-17T11:32:51.914Z,29.35
2023-02-17T11:35:28.327Z,29.25
2023-02-17T11:38:12.309Z,26.85
2023-02-17T11:40:39.064Z,18.20
2023-02-17T11:43:06.473Z,22.10
2023-02-17T11:46:05.619Z,18.08
2023-02-17T11:48:37.382Z,19.83
2023-02-17T11:51:36.632Z,15.63
2023-02-17T11:54:17.080Z,19.48
2023-02-17T11:56:52.946Z,18.05
2023-02-17T11:59:23.036Z,24.77
2023-02-17T12:02:07.206Z,19.40
2023-02-17T12:05:03.377Z,14.10
2023-02-17T12:07:38.730Z,13.52
2023-02-17T12:10:31.142Z,16.48
2023-02-17T12:13:24.790Z,15.55
2023-02-17T12:16:06.743Z,15.93
2023-02-17T12:19:02.155Z,16.55
2023-02-17T12:21:50.686Z,14.52
2023-02-17T12:24:35.989Z,17.52
2023-02-17T12:27:11.248Z,20.20
2023-02-17T12:29:43.811Z,17.17
2023-02-17T12:32:58.983Z,20.25
2023-02-17T12:35:31.460Z,16.77
2023-02-17T12:38:02.456Z,12.70
2023-02-17T12:40:42.701Z,17.40
2023-02-17T12:43:36.282Z,24.35
2023-02-17T12:46:10.783Z,20.27
2023-02-17T12:51:18.759Z,20.45
2023-02-17T12:53:50.795Z,10.52
2023-02-17T12:56:40.150Z,19.00
2023-02-17T12:59:19.903Z,18.33
2023-02-17T13:01:57.869Z,22.60
2023-02-17T13:04:26.325Z,20.10
2023-02-17T13:07:00.798Z,14.05
2023-02-17T13:12:17.540Z,19.83
2023-02-17T13:14:46.368Z,19.52
2023-02-17T13:17:24.593Z,20.23
2023-02-17T13:20:11.395Z,18.55
2023-02-17T13:22:39.842Z,16.10
2023-02-17T13:25:07.843Z,17.27
2023-02-17T13:27:36.534Z,16.52
2023-02-17T13:30:27.037Z,19.98
2023-02-17T13:33:26.899Z,17.52
2023-02-17T13:35:53.518Z,23.40
2023-02-17T13:38:30.066Z,18.67
2023-02-17T13:41:02.072Z,12.88
2023-02-17T13:43:33.694Z,19.73
2023-02-17T13:46:03.807Z,16.13
2023-02-17T13:48:33.607Z,18.45
2023-02-17T13:51:27.588Z,16.60
2023-02-17T13:53:54.312Z,16.30
2023-02-17T13:56:29.900Z,22.35
2023-02-17T13:59:17.628Z,17.17
2023-02-17T14:01:46.053Z,20.15
2023-02-17T14:04:22.714Z,18.33
2023-02-17T14:06:50.037Z,19.02
2023-02-17T14:09:32.097Z,16.35
2023-02-17T14:12:02.230Z,18.52
2023-02-17T14:14:32.616Z,14.10
2023-02-17T14:16:59.186Z,11.75
2023-02-17T14:19:25.862Z,16.45
2023-02-17T14:22:02.445Z,20.80
2023-02-17T14:24:32.589Z,16.33
2023-02-17T14:27:14.066Z,10.20
2023-02-17T14:29:49.127Z,14.13
2023-02-17T14:32:35.927Z,8.90
2023-02-17T14:35:11.634Z,11.45
2023-02-17T14:37:40.250Z,11.30
2023-02-17T14:40:15.776Z,15.82
2023-02-17T14:42:42.315Z,15.32
2023-02-17T14:45:09.006Z,21.02
2023-02-17T14:47:35.535Z,11.73
2023-02-17T14:50:02.138Z,15.57
2023-02-17T14:52:28.783Z,21.17
2023-02-17T14:54:55.353Z,17.77
2023-02-17T14:57:27.794Z,13.07
2023-02-17T14:59:57.630Z,20.80
2023-02-17T15:02:25.016Z,15.02
2023-02-17T15:04:51.603Z,14.32
2023-02-17T15:07:18.844Z,20.45
2023-02-17T15:09:47.328Z,14.82
2023-02-17T15:12:19.581Z,18.00
2023-02-17T15:14:47.093Z,15.77
2023-02-17T15:17:15.068Z,15.40
2023-02-17T15:19:44.894Z,19.02
2023-02-17T15:22:13.596Z,14.60
2023-02-17T15:24:41.257Z,13.50
2023-02-17T15:27:14.001Z,23.02
2023-02-17T15:29:40.764Z,14.02
2023-02-17T15:32:15.415Z,17.42
2023-02-17T15:37:11.285Z,13.02
2023-02-17T15:39:38.094Z,15.30
2023-02-17T15:42:13.720Z,18.30
2023-02-17T15:44:46.837Z,24.55
2023-02-17T15:47:17.555Z,14.55
2023-02-17T15:49:44.316Z,13.30
2023-02-17T15:52:14.689Z,21.40
2023-02-17T15:54:42.958Z,15.50
2023-02-17T15:57:21.050Z,18.02
2023-02-17T15:59:48.077Z,19.05
2023-02-17T16:02:23.408Z,20.20
2023-02-17T16:04:50.036Z,12.65
2023-02-17T16:07:16.723Z,18.35
2023-02-17T16:09:43.339Z,15.88
2023-02-17T16:12:27.061Z,16.60
2023-02-17T16:14:54.679Z,12.70
2023-02-17T16:17:21.345Z,12.43
2023-02-17T16:19:47.918Z,18.30
2023-02-17T16:22:14.769Z,16.83
2023-02-17T16:24:41.326Z,10.48
2023-02-17T16:27:12.265Z,14.50
2023-02-17T16:29:39.256Z,10.52
2023-02-17T16:32:06.163Z,14.68
2023-02-17T16:34:34.588Z,13.50
2023-02-17T16:37:04.097Z,10.77
2023-02-17T16:39:30.723Z,18.88
2023-02-17T16:41:57.381Z,15.45
2023-02-17T16:44:24.050Z,15.43
2023-02-17T16:46:53.353Z,19.90
2023-02-17T16:49:33.528Z,11.90
2023-02-17T16:52:01.291Z,16.88
2023-02-17T16:54:27.836Z,17.13
2023-02-17T16:56:55.707Z,15.65
2023-02-17T16:59:24.453Z,21.27
2023-02-17T17:01:53.419Z,15.85
2023-02-17T17:04:21.177Z,15.43
2023-02-17T17:06:50.627Z,13.77
2023-02-17T17:09:23.215Z,17.05
2023-02-17T17:11:50.463Z,11.40
2023-02-17T17:14:18.375Z,13.82
2023-02-17T17:16:51.754Z,15.27
2023-02-17T17:19:19.108Z,22.85
2023-02-17T17:21:45.613Z,18.30
2023-02-17T17:24:12.157Z,16.58
2023-02-17T17:26:45.174Z,20.10
2023-02-17T17:29:13.838Z,22.30
2023-02-17T17:31:40.770Z,16.77
2023-02-17T17:34:07.657Z,16.33
2023-02-17T17:36:38.612Z,16.40
2023-02-17T17:39:07.987Z,10.52
2023-02-17T17:41:35.348Z,12.73
2023-02-17T17:44:02.353Z,13.15
2023-02-17T17:46:31.585Z,14.23
2023-02-17T17:49:00.415Z,15.20
2023-02-17T17:51:29.525Z,21.20
2023-02-17T17:53:56.673Z,24.92
2023-02-17T17:56:29.400Z,22.30
2023-02-17T17:58:57.551Z,19.85
2023-02-17T18:01:24.628Z,16.85
2023-02-17T18:03:51.804Z,20.05
2023-02-17T18:06:46.940Z,14.50
2023-02-17T18:12:01.427Z,13.25
2023-02-17T18:14:28.889Z,20.90
2023-02-17T18:16:55.603Z,16.08
2023-02-17T18:19:23.622Z,17.27
2023-02-17T18:21:50.143Z,17.33
2023-02-17T18:24:16.685Z,17.67
2023-02-17T18:26:43.222Z,16.10
2023-02-17T18:29:09.924Z,16.20
2023-02-17T18:31:36.702Z,20.55
2023-02-17T18:34:03.853Z,23.48
2023-02-17T18:36:31.029Z,21.42
2023-02-17T18:38:57.602Z,13.43
2023-02-17T18:41:29.900Z,27.40
2023-02-17T18:43:58.357Z,26.55
2023-02-17T18:46:27.086Z,23.17
2023-02-17T18:48:55.065Z,17.83
2023-02-17T18:51:23.798Z,23.85
2023-02-17T18:53:51.196Z,28.38
2023-02-17T18:56:21.616Z,27.58
2023-02-17T18:58:49.824Z,27.73
2023-02-17T19:01:40.825Z,34.03
2023-02-17T19:04:09.679Z,26.25
2023-02-17T19:06:36.383Z,28.65
2023-02-17T19:09:04.721Z,27.30
2023-02-17T19:11:32.272Z,23.15
2023-02-17T19:14:00.922Z,23.25
2023-02-17T19:16:29.845Z,27.60
2023-02-17T19:18:57.060Z,22.95
2023-02-17T19:21:24.747Z,32.80
2023-02-17T19:23:51.554Z,26.17
2023-02-17T19:26:19.464Z,31.73
2023-02-17T19:28:46.661Z,33.70
2023-02-17T19:31:16.677Z,30.45
2023-02-17T19:33:44.414Z,29.33
2023-02-17T19:36:13.519Z,22.17
2023-02-17T19:38:40.135Z,28.13
2023-02-17T19:41:09.295Z,27.42
2023-02-17T19:43:36.187Z,27.55
2023-02-17T19:46:03.595Z,37.75
2023-02-17T19:48:30.368Z,32.70
2023-02-17T19:51:03.671Z,25.23
2023-02-17T19:53:31.654Z,33.30
2023-02-17T19:56:28.979Z,23.08
2023-02-17T19:58:57.144Z,27.45
2023-02-17T20:01:27.437Z,27.38
2023-02-17T20:03:55.560Z,28.95
2023-02-17T20:06:27.648Z,40.13
2023-02-17T20:09:01.416Z,29.98
2023-02-17T20:11:29.302Z,40.65
2023-02-17T20:13:59.207Z,29.92
2023-02-17T20:16:26.211Z,27.95
2023-02-17T20:18:55.210Z,27.52
2023-02-17T20:21:24.601Z,46.08
2023-02-17T20:23:52.499Z,30.48
2023-02-17T20:26:30.539Z,42.65
2023-02-17T20:28:58.899Z,39.33
2023-02-17T20:31:26.445Z,42.25
2023-02-17T20:33:53.425Z,41.92
2023-02-17T20:36:22.181Z,37.22
2023-02-17T20:38:50.141Z,36.20
2023-02-17T20:41:19.690Z,40.97
2023-02-17T20:43:46.448Z,47.92
2023-02-17T20:46:22.155Z,50.33
2023-02-17T20:51:15.708Z,41.40
2023-02-17T20:53:42.445Z,38.50
2023-02-17T20:56:17.176Z,38.45
2023-02-17T20:58:44.212Z,42.15
2023-02-17T21:01:11.374Z,38.25
2023-02-17T21:03:38.177Z,39.78
2023-02-17T21:06:14.543Z,42.03
2023-02-17T21:08:41.113Z,48.63
2023-02-17T21:11:07.659Z,45.67
2023-02-17T21:13:34.186Z,41.97
2023-02-17T21:16:01.491Z,42.08
2023-02-17T21:18:28.045Z,36.65
2023-02-17T21:20:54.545Z,45.10
2023-02-17T21:23:22.609Z,41.83
2023-02-17T21:25:49.191Z,38.47
2023-02-17T21:28:17.495Z,37.05
2023-02-17T21:30:47.226Z,40.88
2023-02-17T21:33:13.756Z,41.28
2023-02-17T21:35:40.421Z,32.75
2023-02-17T21:38:07.065Z,34.30
2023-02-17T21:40:33.574Z,36.22
2023-02-17T21:43:18.583Z,34.58
2023-02-17T21:45:45.575Z,35.25
2023-02-17T21:48:13.421Z,32.63
2023-02-17T21:50:39.951Z,37.17
2023-02-17T21:53:06.498Z,32.85
2023-02-17T21:55:33.649Z,36.95
2023-02-17T21:58:00.159Z,39.95
2023-02-17T22:00:26.744Z,36.65
2023-02-17T22:02:53.283Z,45.88
2023-02-17T22:05:19.839Z,40.92
2023-02-17T22:07:50.022Z,46.15
2023-02-17T22:10:17.502Z,37.38
2023-02-17T22:12:44.126Z,43.30
2023-02-17T22:15:11.567Z,35.85
2023-02-17T22:17:38.108Z,44.00
2023-02-17T22:20:05.331Z,38.35
2023-02-17T22:22:31.891Z,35.35
2023-02-17T22:24:58.477Z,33.15
2023-02-17T22:27:25.054Z,47.80
2023-02-17T22:29:51.561Z,33.17
2023-02-17T22:32:18.373Z,37.05
2023-02-17T22:34:45.045Z,40.50
2023-02-17T22:37:11.630Z,41.97
2023-02-17T22:39:38.183Z,39.05
2023-02-17T22:42:05.028Z,35.00
2023-02-17T22:44:31.659Z,44.78
2023-02-17T22:46:58.180Z,38.22
2023-02-17T22:49:24.802Z,39.25
2023-02-17T22:51:51.340Z,47.10
2023-02-17T22:54:17.889Z,41.45
2023-02-17T22:56:44.402Z,52.00
2023-02-17T22:59:11.023Z,38.95
2023-02-17T23:01:37.665Z,39.25
2023-02-17T23:04:05.108Z,39.45
2023-02-17T23:06:37.129Z,41.58
2023-02-17T23:09:06.769Z,40.22
2023-02-17T23:11:51.203Z,39.33
2023-02-17T23:14:21.990Z,39.75
2023-02-17T23:16:48.739Z,38.30
2023-02-17T23:19:18.027Z,42.42
2023-02-17T23:21:49.989Z,38.30
2023-02-17T23:24:17.847Z,33.22
2023-02-17T23:26:44.559Z,37.65
2023-02-17T23:29:11.519Z,38.00
2023-02-17T23:31:39.016Z,46.78
2023-02-17T23:34:06.441Z,37.05
2023-02-17T23:36:33.511Z,34.40
2023-02-17T23:39:01.284Z,39.70
2023-02-17T23:41:28.097Z,34.30
2023-02-17T23:43:54.728Z,35.10
2023-02-17T23:46:21.513Z,37.40
2023-02-17T23:48:48.460Z,41.05
2023-02-17T23:51:18.116Z,39.85
2023-02-17T23:53:45.412Z,35.10
2023-02-17T23:56:19.075Z,39.78
2023-02-17T23:58:45.640Z,32.70
